createdAt,value
2023-01-23T00:01:36.314Z,1.47
2023-01-23T00:04:04.900Z,1.44
2023-01-23T00:06:32.489Z,1.38
2023-01-23T00:09:00.120Z,1.33
2023-01-23T00:11:30.821Z,1.36
2023-01-23T00:14:00.897Z,1.34
2023-01-23T00:16:31.534Z,1.29
2023-01-23T00:18:59.516Z,1.25
2023-01-23T00:21:29.152Z,1.24
2023-01-23T00:23:58.632Z,1.26
2023-01-23T00:26:28.070Z,1.27
2023-01-23T00:28:56.473Z,1.30
2023-01-23T00:31:27.326Z,1.32
2023-01-23T00:33:56.030Z,1.30
2023-01-23T00:36:24.556Z,1.32
2023-01-23T00:38:52.262Z,1.34
2023-01-23T00:41:19.799Z,1.36
2023-01-23T00:43:48.248Z,1.41
2023-01-23T00:46:16.047Z,1.46
2023-01-23T00:48:45.124Z,1.49
2023-01-23T00:51:13.232Z,1.51
2023-01-23T00:53:40.809Z,1.58
2023-01-23T00:56:09.306Z,1.60
2023-01-23T00:58:37.096Z,1.60
2023-01-23T01:01:04.973Z,1.63
2023-01-23T01:03:34.441Z,1.64
2023-01-23T01:06:04.256Z,1.68
2023-01-23T01:08:31.866Z,1.67
2023-01-23T01:10:59.466Z,1.70
2023-01-23T01:13:27.269Z,1.74
2023-01-23T01:15:55.805Z,1.73
2023-01-23T01:18:24.155Z,1.71
2023-01-23T01:20:52.188Z,1.72
2023-01-23T01:23:21.536Z,1.69
2023-01-23T01:25:49.231Z,1.70
2023-01-23T01:28:16.849Z,1.66
2023-01-23T01:30:44.500Z,1.65
2023-01-23T01:33:12.109Z,1.73
2023-01-23T01:35:40.648Z,1.74
2023-01-23T01:38:08.752Z,1.71
2023-01-23T01:40:38.604Z,1.70
2023-01-23T01:43:08.660Z,1.71
2023-01-23T01:46:03.093Z,1.73
2023-01-23T01:48:34.435Z,1.70
2023-01-23T01:51:05.315Z,1.67
2023-01-23T01:53:34.352Z,1.65
2023-01-23T01:56:04.159Z,1.67
2023-01-23T01:58:32.056Z,1.65
2023-01-23T02:00:59.751Z,1.66
2023-01-23T02:03:27.445Z,1.67
2023-01-23T02:05:55.069Z,1.69
2023-01-23T02:08:27.501Z,1.68
2023-01-23T02:10:55.559Z,1.68
2023-01-23T02:13:30.271Z,1.65
2023-01-23T02:15:59.797Z,1.66
2023-01-23T02:18:28.883Z,1.67
2023-01-23T02:20:58.858Z,1.70
2023-01-23T02:23:38.272Z,1.70
2023-01-23T02:26:10.486Z,1.68
2023-01-23T02:28:42.241Z,1.67
2023-01-23T02:31:11.983Z,1.71
2023-01-23T02:33:49.414Z,1.72
2023-01-23T02:36:19.834Z,1.69
2023-01-23T02:38:54.621Z,1.69
2023-01-23T02:41:29.590Z,1.61
2023-01-23T02:44:00.221Z,1.59
2023-01-23T02:46:27.961Z,1.55
2023-01-23T02:48:55.701Z,1.55
2023-01-23T02:51:24.473Z,1.54
2023-01-23T02:53:52.464Z,1.53
2023-01-23T02:56:20.221Z,1.54
2023-01-23T02:59:06.512Z,1.58
2023-01-23T03:01:35.795Z,1.54
2023-01-23T03:04:06.232Z,1.54
2023-01-23T03:06:37.529Z,1.50
2023-01-23T03:09:08.926Z,1.52
2023-01-23T03:11:38.320Z,1.53
2023-01-23T03:14:09.176Z,1.52
2023-01-23T03:16:38.562Z,1.47
2023-01-23T03:19:08.982Z,1.44
2023-01-23T03:21:39.926Z,1.44
2023-01-23T03:24:10.492Z,1.49
2023-01-23T03:26:39.785Z,1.49
2023-01-23T03:29:32.911Z,1.47
2023-01-23T03:32:00.656Z,1.45
2023-01-23T03:34:29.073Z,1.43
2023-01-23T03:36:56.907Z,1.44
2023-01-23T03:39:43.949Z,1.46
2023-01-23T03:42:11.922Z,1.44
2023-01-23T03:44:40.906Z,1.46
2023-01-23T03:47:08.839Z,1.51
2023-01-23T03:49:38.457Z,1.47
2023-01-23T03:52:06.822Z,1.50
2023-01-23T03:54:34.624Z,1.48
2023-01-23T03:57:02.784Z,1.47
2023-01-23T04:00:01.949Z,1.48
2023-01-23T04:02:41.310Z,1.46
2023-01-23T04:05:11.381Z,1.44
2023-01-23T04:07:39.670Z,1.46
2023-01-23T04:10:07.599Z,1.47
2023-01-23T04:12:35.854Z,1.45
2023-01-23T04:15:05.578Z,1.47
2023-01-23T04:17:33.109Z,1.47
2023-01-23T04:20:00.672Z,1.55
2023-01-23T04:22:29.075Z,1.55
2023-01-23T04:24:56.661Z,1.51
2023-01-23T04:27:24.940Z,1.55
2023-01-23T04:29:55.386Z,1.54
2023-01-23T04:32:26.003Z,1.56
2023-01-23T04:34:53.680Z,1.56
2023-01-23T04:37:21.291Z,1.53
2023-01-23T04:39:48.896Z,1.53
2023-01-23T04:42:16.805Z,1.53
2023-01-23T04:45:00.140Z,1.55
2023-01-23T04:47:47.526Z,1.56
2023-01-23T04:50:16.690Z,1.56
2023-01-23T04:52:46.959Z,1.49
2023-01-23T04:55:14.864Z,1.50
2023-01-23T04:57:44.554Z,1.47
2023-01-23T05:00:22.831Z,1.46
2023-01-23T05:02:52.790Z,1.43
2023-01-23T05:05:21.298Z,1.42
2023-01-23T05:07:51.975Z,1.48
2023-01-23T05:10:20.626Z,1.48
2023-01-23T05:12:49.791Z,1.49
2023-01-23T05:15:18.209Z,1.50
2023-01-23T05:17:47.369Z,1.49
2023-01-23T05:20:16.427Z,1.52
2023-01-23T05:22:52.329Z,1.51
2023-01-23T05:25:24.206Z,1.51
2023-01-23T05:27:53.028Z,1.49
2023-01-23T05:30:22.678Z,1.51
2023-01-23T05:32:53.584Z,1.49
2023-01-23T05:35:24.187Z,1.46
2023-01-23T05:37:52.799Z,1.40
2023-01-23T05:40:23.879Z,1.33
2023-01-23T05:43:15.391Z,1.27
2023-01-23T05:46:05.205Z,1.26
2023-01-23T05:48:42.962Z,1.24
2023-01-23T05:51:13.534Z,1.25
2023-01-23T05:53:41.262Z,1.24
2023-01-23T05:56:09.969Z,1.25
2023-01-23T05:58:51.625Z,1.24
2023-01-23T06:01:25.849Z,1.25
2023-01-23T06:04:13.049Z,1.24
2023-01-23T06:07:09.120Z,1.27
2023-01-23T06:09:37.050Z,1.26
2023-01-23T06:12:04.873Z,1.25
2023-01-23T06:14:33.003Z,1.27
2023-01-23T06:17:00.697Z,1.27
2023-01-23T06:19:28.461Z,1.25
2023-01-23T06:21:56.127Z,1.24
2023-01-23T06:24:25.761Z,1.25
2023-01-23T06:26:53.341Z,1.23
2023-01-23T06:29:21.136Z,1.23
2023-01-23T06:31:49.487Z,1.25
2023-01-23T06:34:18.856Z,1.20
2023-01-23T06:36:56.176Z,1.23
2023-01-23T06:39:25.584Z,1.26
2023-01-23T06:41:54.614Z,1.23
2023-01-23T06:44:23.518Z,1.28
2023-01-23T06:46:53.543Z,1.30
2023-01-23T06:49:24.007Z,1.30
2023-01-23T06:51:51.594Z,1.27
2023-01-23T06:54:19.387Z,1.26
2023-01-23T06:56:49.265Z,1.27
2023-01-23T06:59:16.960Z,1.31
2023-01-23T07:01:44.797Z,1.28
2023-01-23T07:04:19.383Z,1.28
2023-01-23T07:06:50.043Z,1.31
2023-01-23T07:09:19.468Z,1.28
2023-01-23T07:11:57.188Z,1.29
2023-01-23T07:14:27.078Z,1.28
2023-01-23T07:16:55.502Z,1.37
2023-01-23T07:19:23.136Z,1.39
2023-01-23T07:21:50.914Z,1.44
2023-01-23T07:24:18.542Z,1.48
2023-01-23T07:26:46.096Z,1.55
2023-01-23T07:29:14.986Z,1.53
2023-01-23T07:31:42.582Z,1.47
2023-01-23T07:34:10.157Z,1.49
2023-01-23T07:36:37.776Z,1.48
2023-01-23T07:39:05.312Z,1.48
2023-01-23T07:41:32.838Z,1.51
2023-01-23T07:44:03.698Z,1.57
2023-01-23T07:46:32.647Z,1.58
2023-01-23T07:49:00.234Z,1.65
2023-01-23T07:51:27.868Z,1.65
2023-01-23T07:53:55.447Z,1.68
2023-01-23T07:56:23.035Z,1.67
2023-01-23T07:58:51.716Z,1.71
2023-01-23T08:01:20.148Z,1.72
2023-01-23T08:03:49.311Z,1.75
2023-01-23T08:06:16.944Z,1.75
2023-01-23T08:08:44.519Z,1.76
2023-01-23T08:11:13.637Z,1.79
2023-01-23T08:13:41.382Z,1.84
2023-01-23T08:16:11.470Z,1.89
2023-01-23T08:18:41.035Z,1.94
2023-01-23T08:21:10.247Z,1.98
2023-01-23T08:23:37.850Z,2.00
2023-01-23T08:26:08.537Z,2.08
2023-01-23T08:28:36.679Z,2.10
2023-01-23T08:31:08.107Z,2.16
2023-01-23T08:33:36.630Z,2.21
2023-01-23T08:36:05.594Z,2.29
2023-01-23T08:38:34.532Z,2.43
2023-01-23T08:41:03.897Z,2.44
2023-01-23T08:43:31.776Z,2.38
2023-01-23T08:46:00.959Z,2.41
2023-01-23T08:48:29.233Z,2.45
2023-01-23T08:51:01.879Z,2.45
2023-01-23T08:53:29.905Z,2.44
2023-01-23T08:56:01.208Z,2.44
2023-01-23T08:58:29.145Z,2.50
2023-01-23T09:00:56.817Z,2.50
2023-01-23T09:03:25.216Z,2.50
2023-01-23T09:05:53.160Z,2.46
2023-01-23T09:08:20.810Z,2.46
2023-01-23T09:10:48.422Z,2.49
2023-01-23T09:13:19.567Z,2.53
2023-01-23T09:15:47.706Z,2.55
2023-01-23T09:18:15.282Z,2.69
2023-01-23T09:20:42.970Z,2.67
2023-01-23T09:23:10.733Z,2.77
2023-01-23T09:25:38.992Z,2.88
2023-01-23T09:28:06.589Z,2.70
2023-01-23T09:30:35.479Z,2.73
2023-01-23T09:33:03.028Z,2.76
2023-01-23T09:35:30.776Z,2.71
2023-01-23T09:38:01.213Z,2.72
2023-01-23T09:40:32.147Z,2.78
2023-01-23T09:43:06.368Z,2.77
2023-01-23T09:45:35.387Z,2.83
2023-01-23T09:48:17.044Z,2.88
2023-01-23T09:50:54.206Z,2.88
2023-01-23T09:53:24.310Z,2.93
2023-01-23T09:55:58.838Z,3.02
2023-01-23T09:58:31.409Z,3.05
2023-01-23T10:01:00.661Z,2.91
2023-01-23T10:03:32.451Z,2.99
2023-01-23T10:06:19.088Z,3.01
2023-01-23T10:09:10.077Z,2.93
2023-01-23T10:11:49.939Z,2.95
2023-01-23T10:14:36.784Z,2.87
2023-01-23T10:17:14.155Z,2.93
2023-01-23T10:19:53.907Z,2.98
2023-01-23T10:22:34.409Z,3.10
2023-01-23T10:25:11.111Z,3.04
2023-01-23T10:27:42.197Z,3.07
2023-01-23T10:30:20.057Z,3.09
2023-01-23T10:32:53.290Z,3.10
2023-01-23T10:35:25.737Z,3.19
2023-01-23T10:38:01.632Z,3.28
2023-01-23T10:40:47.753Z,3.30
2023-01-23T10:43:16.704Z,3.30
2023-01-23T10:45:45.734Z,3.39
2023-01-23T10:48:39.842Z,3.49
2023-01-23T10:51:26.028Z,3.43
2023-01-23T10:54:08.453Z,3.42
2023-01-23T10:56:39.320Z,3.50
2023-01-23T10:59:19.478Z,3.47
2023-01-23T11:01:57.650Z,3.39
2023-01-23T11:04:28.872Z,3.38
2023-01-23T11:07:10.472Z,3.34
2023-01-23T11:09:50.300Z,3.32
2023-01-23T11:12:20.449Z,3.39
2023-01-23T11:14:48.349Z,3.47
2023-01-23T11:17:20.357Z,3.60
2023-01-23T11:19:53.089Z,3.68
2023-01-23T11:22:34.070Z,3.79
2023-01-23T11:25:26.591Z,3.82
2023-01-23T11:27:59.272Z,3.91
2023-01-23T11:30:35.084Z,3.87
2023-01-23T11:33:11.198Z,3.90
2023-01-23T11:35:51.934Z,3.99
2023-01-23T11:38:30.891Z,3.92
2023-01-23T11:40:59.224Z,3.89
2023-01-23T11:43:26.867Z,3.88
2023-01-23T11:46:18.009Z,4.10
2023-01-23T11:48:59.160Z,4.20
2023-01-23T11:51:35.858Z,4.37
2023-01-23T11:54:17.025Z,4.34
2023-01-23T11:56:57.075Z,4.42
2023-01-23T11:59:39.675Z,4.64
2023-01-23T12:02:29.240Z,4.79
2023-01-23T12:05:27.512Z,5.00
2023-01-23T12:08:08.098Z,5.19
2023-01-23T12:10:49.034Z,5.22
2023-01-23T12:13:36.562Z,5.39
2023-01-23T12:16:15.130Z,5.14
2023-01-23T12:18:56.892Z,5.03
2023-01-23T12:21:35.551Z,5.04
2023-01-23T12:24:32.326Z,4.96
2023-01-23T12:27:06.387Z,4.97
2023-01-23T12:30:07.257Z,5.11
2023-01-23T12:32:51.662Z,5.20
2023-01-23T12:35:31.890Z,5.15
2023-01-23T12:38:21.664Z,5.10
2023-01-23T12:40:54.891Z,5.08
2023-01-23T12:43:39.101Z,4.94
2023-01-23T12:46:12.384Z,4.92
2023-01-23T12:48:44.002Z,4.90
2023-01-23T12:51:15.937Z,4.88
2023-01-23T12:53:46.872Z,4.71
2023-01-23T12:56:23.067Z,4.57
2023-01-23T12:58:57.455Z,4.39
2023-01-23T13:01:43.302Z,4.44
2023-01-23T13:04:21.731Z,4.36
2023-01-23T13:07:03.968Z,4.28
2023-01-23T13:09:44.344Z,4.28
2023-01-23T13:12:21.596Z,4.17
2023-01-23T13:17:39.939Z,4.11
2023-01-23T13:20:41.284Z,4.16
2023-01-23T13:23:23.351Z,4.18
2023-01-23T13:25:51.807Z,4.26
2023-01-23T13:28:44.608Z,4.39
2023-01-23T13:31:27.510Z,4.42
2023-01-23T13:34:06.680Z,4.40
2023-01-23T13:36:38.814Z,4.49
2023-01-23T13:39:26.413Z,4.50
2023-01-23T13:42:27.491Z,4.49
2023-01-23T13:45:38.637Z,4.51
2023-01-23T14:22:45.281Z,4.38
2023-01-23T14:25:18.090Z,4.41
2023-01-23T14:27:53.218Z,4.45
2023-01-23T14:30:26.371Z,4.46
2023-01-23T14:32:55.969Z,4.38
2023-01-23T14:35:25.938Z,4.47
2023-01-23T14:37:58.716Z,4.47
2023-01-23T14:40:33.261Z,4.47
2023-01-23T14:43:07.723Z,4.45
2023-01-23T14:45:37.617Z,4.42
2023-01-23T14:48:07.947Z,4.38
2023-01-23T14:50:35.915Z,4.36
2023-01-23T14:53:06.816Z,4.33
2023-01-23T14:55:38.515Z,4.36
2023-01-23T14:58:07.378Z,4.36
2023-01-23T15:00:36.650Z,4.31
2023-01-23T15:03:05.552Z,4.31
2023-01-23T15:05:33.511Z,4.31
2023-01-23T15:08:03.944Z,4.19
2023-01-23T15:10:37.084Z,4.21
2023-01-23T15:13:09.871Z,4.12
2023-01-23T15:15:38.266Z,4.06
2023-01-23T15:18:21.889Z,3.91
2023-01-23T15:20:53.591Z,3.86
2023-01-23T15:23:31.118Z,3.81
2023-01-23T15:26:26.441Z,3.79
2023-01-23T15:28:55.906Z,3.77
2023-01-23T15:31:27.208Z,3.74
2023-01-23T15:33:55.990Z,3.74
2023-01-23T15:36:27.542Z,3.74
2023-01-23T15:38:55.956Z,3.75
2023-01-23T15:41:39.617Z,3.67
2023-01-23T15:44:13.355Z,3.65
2023-01-23T15:46:40.985Z,3.68
2023-01-23T15:49:16.481Z,3.61
2023-01-23T15:51:51.836Z,3.62
2023-01-23T15:54:26.095Z,3.60
2023-01-23T15:57:06.533Z,3.56
2023-01-23T15:59:35.825Z,3.54
2023-01-23T16:02:03.459Z,3.45
2023-01-23T16:04:31.076Z,3.42
2023-01-23T16:07:01.592Z,3.45
2023-01-23T16:09:31.153Z,3.47
2023-01-23T16:12:00.739Z,3.42
2023-01-23T16:14:28.639Z,3.38
2023-01-23T16:17:00.122Z,3.39
2023-01-23T16:19:32.225Z,3.35
2023-01-23T16:22:05.186Z,3.33
2023-01-23T16:24:38.263Z,3.31
2023-01-23T16:27:07.290Z,3.30
2023-01-23T16:29:35.637Z,3.30
2023-01-23T16:32:04.161Z,3.28
2023-01-23T16:34:31.804Z,3.33
2023-01-23T16:37:00.944Z,3.29
2023-01-23T16:39:32.490Z,3.29
2023-01-23T16:42:00.658Z,3.26
2023-01-23T16:44:30.324Z,3.23
2023-01-23T16:46:57.898Z,3.25
2023-01-23T16:49:25.529Z,3.27
2023-01-23T16:51:58.278Z,3.22
2023-01-23T16:54:26.524Z,3.19
2023-01-23T16:56:55.005Z,3.23
2023-01-23T16:59:35.667Z,3.22
2023-01-23T17:02:09.539Z,3.28
2023-01-23T17:04:37.114Z,3.22
2023-01-23T17:07:06.905Z,3.28
2023-01-23T17:09:34.732Z,3.23
2023-01-23T17:12:02.497Z,3.22
2023-01-23T17:14:32.273Z,4.04
2023-01-23T17:17:06.012Z,4.09
2023-01-23T17:19:38.449Z,3.92
2023-01-23T17:22:11.720Z,3.78
2023-01-23T17:24:39.103Z,3.72
2023-01-23T17:27:06.696Z,3.66
2023-01-23T17:29:34.263Z,3.59
2023-01-23T17:32:03.859Z,3.56
2023-01-23T17:34:48.620Z,3.55
2023-01-23T17:37:21.277Z,3.51
2023-01-23T17:39:49.180Z,3.46
2023-01-23T17:42:16.812Z,3.49
2023-01-23T17:44:44.548Z,3.45
2023-01-23T17:47:14.317Z,3.48
2023-01-23T17:49:46.655Z,3.44
2023-01-23T17:52:14.337Z,3.39
2023-01-23T17:54:41.882Z,3.37
2023-01-23T17:57:09.430Z,3.33
2023-01-23T17:59:36.987Z,3.36
2023-01-23T18:02:21.241Z,3.33
2023-01-23T18:04:48.887Z,4.19
2023-01-23T18:07:17.220Z,4.31
2023-01-23T18:09:44.800Z,4.79
2023-01-23T18:12:18.245Z,4.43
2023-01-23T18:14:55.504Z,4.15
2023-01-23T18:17:34.264Z,3.99
2023-01-23T18:20:02.381Z,3.86
2023-01-23T18:22:30.641Z,3.71
2023-01-23T18:24:59.119Z,3.60
2023-01-23T18:27:27.913Z,3.55
2023-01-23T18:30:15.645Z,3.52
2023-01-23T18:32:57.603Z,3.51
2023-01-23T18:35:38.000Z,3.45
2023-01-23T18:38:11.772Z,3.43
2023-01-23T18:40:49.121Z,3.43
2023-01-23T18:43:34.361Z,3.44
2023-01-23T18:46:02.456Z,3.39
2023-01-23T18:48:32.174Z,3.40
2023-01-23T18:51:09.286Z,3.43
2023-01-23T18:53:46.707Z,3.43
2023-01-23T18:56:29.481Z,3.33
2023-01-23T18:59:12.038Z,3.38
2023-01-23T19:01:50.368Z,3.40
2023-01-23T19:04:25.764Z,3.35
2023-01-23T19:06:53.913Z,3.35
2023-01-23T19:09:22.318Z,3.35
2023-01-23T19:12:02.873Z,3.31
2023-01-23T19:14:51.638Z,3.34
2023-01-23T19:17:29.900Z,3.33
2023-01-23T19:20:04.359Z,3.40
2023-01-23T19:22:46.845Z,3.42
2023-01-23T19:25:18.378Z,3.34
2023-01-23T19:27:52.571Z,3.34
2023-01-23T19:30:22.151Z,3.32
2023-01-23T19:32:50.352Z,3.28
2023-01-23T19:35:19.865Z,3.35
2023-01-23T19:37:47.603Z,3.26
2023-01-23T19:40:17.168Z,3.24
2023-01-23T19:42:56.400Z,3.27
2023-01-23T19:45:29.572Z,3.24
2023-01-23T19:47:58.999Z,3.26
2023-01-23T19:50:28.320Z,3.23
2023-01-23T19:52:56.794Z,3.29
2023-01-23T19:55:26.912Z,3.29
2023-01-23T19:57:56.275Z,3.27
2023-01-23T20:00:24.374Z,3.33
2023-01-23T20:02:51.976Z,3.35
2023-01-23T20:05:20.460Z,3.37
2023-01-23T20:07:50.291Z,3.38
2023-01-23T20:10:18.654Z,3.35
2023-01-23T20:12:51.632Z,3.32
2023-01-23T20:15:22.259Z,3.33
2023-01-23T20:17:50.423Z,3.34
2023-01-23T20:20:18.617Z,3.29
2023-01-23T20:22:46.601Z,3.32
2023-01-23T20:25:17.515Z,3.30
2023-01-23T20:27:45.882Z,3.26
2023-01-23T20:30:16.498Z,3.28
2023-01-23T20:32:44.793Z,3.28
2023-01-23T20:35:12.547Z,3.27
2023-01-23T20:37:40.268Z,3.30
2023-01-23T20:40:11.385Z,3.28
2023-01-23T20:42:40.889Z,3.30
2023-01-23T20:45:09.578Z,3.33
2023-01-23T20:47:37.252Z,3.39
2023-01-23T20:50:05.387Z,3.44
2023-01-23T20:52:50.609Z,3.43
2023-01-23T20:55:18.335Z,3.43
2023-01-23T20:58:04.703Z,3.43
2023-01-23T21:00:32.282Z,3.40
2023-01-23T21:02:59.943Z,3.43
2023-01-23T21:05:27.671Z,3.48
2023-01-23T21:07:55.281Z,3.45
2023-01-23T21:10:23.058Z,3.38
2023-01-23T21:12:51.980Z,3.43
2023-01-23T21:15:19.763Z,3.42
2023-01-23T21:17:47.538Z,3.41
2023-01-23T21:20:15.075Z,3.44
2023-01-23T21:22:42.633Z,3.51
2023-01-23T21:25:10.434Z,3.50
2023-01-23T21:27:38.035Z,3.48
2023-01-23T21:30:08.511Z,3.45
2023-01-23T21:32:46.593Z,3.50
2023-01-23T21:35:24.032Z,3.54
2023-01-23T21:37:51.615Z,3.51
2023-01-23T21:40:19.681Z,3.48
2023-01-23T21:42:47.377Z,3.46
2023-01-23T21:45:16.456Z,3.48
2023-01-23T21:47:44.019Z,3.49
2023-01-23T21:50:12.381Z,3.49
2023-01-23T21:52:39.984Z,3.50
2023-01-23T21:55:08.444Z,3.55
2023-01-23T21:57:36.079Z,3.58
2023-01-23T22:00:21.250Z,3.54
2023-01-23T22:02:50.310Z,3.53
2023-01-23T22:05:18.141Z,3.57
2023-01-23T22:07:47.346Z,3.55
2023-01-23T22:10:15.406Z,3.57
2023-01-23T22:12:43.255Z,3.55
2023-01-23T22:15:12.093Z,3.49
2023-01-23T22:17:39.667Z,3.46
2023-01-23T22:20:10.328Z,3.51
2023-01-23T22:22:37.842Z,3.59
2023-01-23T22:25:06.154Z,3.58
2023-01-23T22:27:33.776Z,3.57
2023-01-23T22:30:01.360Z,3.51
2023-01-23T22:32:28.944Z,3.58
2023-01-23T22:34:56.501Z,3.54
2023-01-23T22:37:25.444Z,3.56
2023-01-23T22:39:52.999Z,3.52
2023-01-23T22:42:20.935Z,3.52
2023-01-23T22:44:48.577Z,3.51
2023-01-23T22:47:16.136Z,3.49
2023-01-23T22:49:44.544Z,3.52
2023-01-23T22:52:12.100Z,3.53
2023-01-23T22:54:40.993Z,3.46
2023-01-23T22:57:08.525Z,3.47
2023-01-23T22:59:36.363Z,3.44
2023-01-23T23:02:03.993Z,3.34
2023-01-23T23:04:31.940Z,3.40
2023-01-23T23:06:59.557Z,3.36
2023-01-23T23:09:27.324Z,3.40
2023-01-23T23:11:57.311Z,3.34
2023-01-23T23:14:24.857Z,3.36
2023-01-23T23:16:52.465Z,3.38
2023-01-23T23:19:19.974Z,3.39
2023-01-23T23:21:47.556Z,3.80
2023-01-23T23:24:15.116Z,3.82
2023-01-23T23:26:42.734Z,3.70
2023-01-23T23:29:11.717Z,3.60
2023-01-23T23:31:39.410Z,3.57
2023-01-23T23:34:07.410Z,3.49
2023-01-23T23:36:35.499Z,3.39
2023-01-23T23:39:03.170Z,3.29
2023-01-23T23:41:30.959Z,3.33
2023-01-23T23:43:58.493Z,3.35
2023-01-23T23:46:27.884Z,3.39
2023-01-23T23:48:55.561Z,3.38
2023-01-23T23:51:26.297Z,3.31
2023-01-23T23:53:55.430Z,3.26
2023-01-23T23:56:25.778Z,3.33
2023-01-23T23:58:54.112Z,3.33
